Home > Products > Valid Products > TAF

000
FTUS43 KARX 032328
TAFLSE
TAF
KLSE 032328Z 0400/0424 VRB03KT P6SM SKC
     FM041200 18004KT P6SM SCT040
     FM041800 20007KT P6SM SKC=



000
FTUS43 KARX 032328
TAFRST
TAF
KRST 032328Z 0400/0424 28007KT P6SM SKC
     FM040200 23005KT P6SM SKC
     FM040800 24005KT P6SM SCT080
     FM041800 22008KT P6SM SKC=



000
FTUS43 KARX 032328
TAFLSE
TAF
KLSE 032328Z 0400/0424 VRB03KT P6SM SKC
     FM041200 18004KT P6SM SCT040
     FM041800 20007KT P6SM SKC=



000
FTUS43 KARX 032328
TAFRST
TAF
KRST 032328Z 0400/0424 28007KT P6SM SKC
     FM040200 23005KT P6SM SKC
     FM040800 24005KT P6SM SCT080
     FM041800 22008KT P6SM SKC=



000
FTUS43 KARX 031730
TAFRST
TAF
KRST 031730Z 0318/0418 27007KT P6SM SKC
     FM040800 23006KT P6SM SCT080=



000
FTUS43 KARX 031730
TAFLSE
TAF
KLSE 031730Z 0318/0418 24006KT P6SM SCT035
     FM040100 VRB03KT P6SM SKC
     FM040900 15004KT P6SM SCT080=



000
FTUS43 KARX 031730
TAFLSE
TAF
KLSE 031730Z 0318/0418 24006KT P6SM SCT035
     FM040100 VRB03KT P6SM SKC
     FM040900 15004KT P6SM SCT080=



000
FTUS43 KARX 031730
TAFRST
TAF
KRST 031730Z 0318/0418 27007KT P6SM SKC
     FM040800 23006KT P6SM SCT080=



000
FTUS43 KARX 031730
TAFLSE
TAF
KLSE 031730Z 0318/0418 24006KT P6SM SCT035
     FM040100 VRB03KT P6SM SKC
     FM040900 15004KT P6SM SCT080=



000
FTUS43 KARX 031730
TAFRST
TAF
KRST 031730Z 0318/0418 27007KT P6SM SKC
     FM040800 23006KT P6SM SCT080=



000
FTUS43 KARX 031411 AAC
TAFLSE
TAF AMD
KLSE 031411Z 0314/0412 17005KT P6SM SKC
     FM031900 24005KT P6SM SCT035
     FM040200 18004KT P6SM SKC
     FM040900 15004KT P6SM SCT040=



000
FTUS43 KARX 031411 AAC
TAFLSE
TAF AMD
KLSE 031411Z 0314/0412 17005KT P6SM SKC
     FM031900 24005KT P6SM SCT035
     FM040200 18004KT P6SM SKC
     FM040900 15004KT P6SM SCT040=



000
FTUS43 KARX 031233 AAB
TAFLSE
TAF AMD
KLSE 031233Z 0313/0412 12005KT 3SM BR OVC002
      TEMPO 0313/0314 1SM BR OVC002
     FM031500 15003KT P6SM SKC
     FM031900 24005KT P6SM SCT035
     FM040200 18004KT P6SM SKC
     FM040900 15004KT P6SM SCT040=



000
FTUS43 KARX 031233 AAB
TAFLSE
TAF AMD
KLSE 031233Z 0313/0412 12005KT 3SM BR OVC002
      TEMPO 0313/0314 1SM BR OVC002
     FM031500 15003KT P6SM SKC
     FM031900 24005KT P6SM SCT035
     FM040200 18004KT P6SM SKC
     FM040900 15004KT P6SM SCT040=



000
FTUS43 KARX 031224 AAA
TAFLSE
TAF AMD
KLSE 031224Z 0312/0412 12005KT P6SM BCFG SCT003
      TEMPO 0312/0314 1SM BR BKN003
     FM031500 15003KT P6SM SKC
     FM031900 24005KT P6SM SCT035
     FM040200 18004KT P6SM SKC
     FM040900 15004KT P6SM SCT040=



000
FTUS43 KARX 031224 AAA
TAFLSE
TAF AMD
KLSE 031224Z 0312/0412 12005KT P6SM BCFG SCT003
      TEMPO 0312/0314 1SM BR BKN003
     FM031500 15003KT P6SM SKC
     FM031900 24005KT P6SM SCT035
     FM040200 18004KT P6SM SKC
     FM040900 15004KT P6SM SCT040=



000
FTUS43 KARX 031224 AAA
TAFLSE
TAF AMD
KLSE 031224Z 0312/0412 12005KT P6SM BCFG SCT003
      TEMPO 0312/0314 1SM BR BKN003
     FM031500 15003KT P6SM SKC
     FM031900 24005KT P6SM SCT035
     FM040200 18004KT P6SM SKC
     FM040900 15004KT P6SM SCT040=



000
FTUS43 KARX 031224 AAA
TAFLSE
TAF AMD
KLSE 031224Z 0312/0412 12005KT P6SM BCFG SCT003
      TEMPO 0312/0314 1SM BR BKN003
     FM031500 15003KT P6SM SKC
     FM031900 24005KT P6SM SCT035
     FM040200 18004KT P6SM SKC
     FM040900 15004KT P6SM SCT040=



000
FTUS43 KARX 031120
TAFRST
TAF
KRST 031120Z 0312/0412 25004KT P6SM SKC
     FM031800 25006KT P6SM SKC
     FM040900 24006KT P6SM SCT080=



000
FTUS43 KARX 031120
TAFLSE
TAF
KLSE 031120Z 0312/0412 12005KT P6SM BCFG SCT003
     FM031300 15003KT P6SM SKC
     FM031900 24005KT P6SM SCT035
     FM040200 18004KT P6SM SKC
     FM040900 15004KT P6SM SCT040=



000
FTUS43 KARX 031120
TAFLSE
TAF
KLSE 031120Z 0312/0412 12005KT P6SM BCFG SCT003
     FM031300 15003KT P6SM SKC
     FM031900 24005KT P6SM SCT035
     FM040200 18004KT P6SM SKC
     FM040900 15004KT P6SM SCT040=



000
FTUS43 KARX 031120
TAFRST
TAF
KRST 031120Z 0312/0412 25004KT P6SM SKC
     FM031800 25006KT P6SM SKC
     FM040900 24006KT P6SM SCT080=



000
FTUS43 KARX 031120
TAFLSE
TAF
KLSE 031120Z 0312/0412 12005KT P6SM BCFG SCT003
     FM031300 15003KT P6SM SKC
     FM031900 24005KT P6SM SCT035
     FM040200 18004KT P6SM SKC
     FM040900 15004KT P6SM SCT040=



000
FTUS43 KARX 031120
TAFRST
TAF
KRST 031120Z 0312/0412 25004KT P6SM SKC
     FM031800 25006KT P6SM SKC
     FM040900 24006KT P6SM SCT080=



000
FTUS43 KARX 031120
TAFLSE
TAF
KLSE 031120Z 0312/0412 12005KT P6SM BCFG SCT003
     FM031300 15003KT P6SM SKC
     FM031900 24005KT P6SM SCT035
     FM040200 18004KT P6SM SKC
     FM040900 15004KT P6SM SCT040=



000
FTUS43 KARX 031120
TAFRST
TAF
KRST 031120Z 0312/0412 25004KT P6SM SKC
     FM031800 25006KT P6SM SKC
     FM040900 24006KT P6SM SCT080=



000
FTUS43 KARX 031030 AAB
TAFLSE
TAF AMD
KLSE 031030Z 0311/0406 12005KT P6SM BCFG SCT003
     FM031300 20003KT P6SM SKC
     FM031900 24005KT P6SM SCT035
     FM040200 18004KT P6SM SKC=



000
FTUS43 KARX 031030 AAB
TAFLSE
TAF AMD
KLSE 031030Z 0311/0406 12005KT P6SM BCFG SCT003
     FM031300 20003KT P6SM SKC
     FM031900 24005KT P6SM SCT035
     FM040200 18004KT P6SM SKC=



000
FTUS43 KARX 030928 AAA
TAFLSE
TAF AMD
KLSE 030928Z 0309/0406 12005KT P6SM FEW002 SCT200
      TEMPO 0310/0313 1/2SM FG BKN002
     FM031400 20003KT P6SM SKC
     FM031900 24005KT P6SM SCT035
     FM040200 18004KT P6SM SKC=



000
FTUS43 KARX 030928 AAA
TAFLSE
TAF AMD
KLSE 030928Z 0309/0406 12005KT P6SM FEW002 SCT200
      TEMPO 0310/0313 1/2SM FG BKN002
     FM031400 20003KT P6SM SKC
     FM031900 24005KT P6SM SCT035
     FM040200 18004KT P6SM SKC=



000
FTUS43 KARX 030928 AAA
TAFLSE
TAF AMD
KLSE 030928Z 0309/0406 12005KT P6SM FEW002 SCT200
      TEMPO 0310/0313 1/2SM FG BKN002
     FM031400 20003KT P6SM SKC
     FM031900 24005KT P6SM SCT035
     FM040200 18004KT P6SM SKC=



000
FTUS43 KARX 030928 AAA
TAFLSE
TAF AMD
KLSE 030928Z 0309/0406 12005KT P6SM FEW002 SCT200
      TEMPO 0310/0313 1/2SM FG BKN002
     FM031400 20003KT P6SM SKC
     FM031900 24005KT P6SM SCT035
     FM040200 18004KT P6SM SKC=



000
FTUS43 KARX 030520
TAFRST
TAF
KRST 030520Z 0306/0406 15003KT P6SM BKN250
     FM031000 27003KT P6SM SCT250
     FM031800 24005KT P6SM SCT250=



000
FTUS43 KARX 030520
TAFLSE
TAF
KLSE 030520Z 0306/0406 11005KT P6SM BKN250
     FM031000 13003KT 4SM BR BCFG SCT003
      TEMPO 0310/0313 1/2SM FG BKN002
     FM031400 20003KT P6SM SKC
     FM031900 24005KT P6SM SCT035
     FM040200 18004KT P6SM SKC=



000
FTUS43 KARX 030520
TAFLSE
TAF
KLSE 030520Z 0306/0406 11005KT P6SM BKN250
     FM031000 13003KT 4SM BR BCFG SCT003
      TEMPO 0310/0313 1/2SM FG BKN002
     FM031400 20003KT P6SM SKC
     FM031900 24005KT P6SM SCT035
     FM040200 18004KT P6SM SKC=



000
FTUS43 KARX 030520
TAFRST
TAF
KRST 030520Z 0306/0406 15003KT P6SM BKN250
     FM031000 27003KT P6SM SCT250
     FM031800 24005KT P6SM SCT250=



000
FTUS43 KARX 030520
TAFLSE
TAF
KLSE 030520Z 0306/0406 11005KT P6SM BKN250
     FM031000 13003KT 4SM BR BCFG SCT003
      TEMPO 0310/0313 1/2SM FG BKN002
     FM031400 20003KT P6SM SKC
     FM031900 24005KT P6SM SCT035
     FM040200 18004KT P6SM SKC=



000
FTUS43 KARX 030520
TAFRST
TAF
KRST 030520Z 0306/0406 15003KT P6SM BKN250
     FM031000 27003KT P6SM SCT250
     FM031800 24005KT P6SM SCT250=



000
FTUS43 KARX 022323
TAFLSE
TAF
KLSE 022323Z 0300/0324 12006KT P6SM SCT250
     FM030200 13003KT P6SM SCT250
     FM031000 14003KT 4SM BR BCFG SCT003
      TEMPO 0310/0313 1/2SM FG BKN002
     FM031400 20005KT P6SM SKC
     FM031800 23005KT P6SM SCT035=



000
FTUS43 KARX 022323
TAFLSE
TAF
KLSE 022323Z 0300/0324 12006KT P6SM SCT250
     FM030200 13003KT P6SM SCT250
     FM031000 14003KT 4SM BR BCFG SCT003
      TEMPO 0310/0313 1/2SM FG BKN002
     FM031400 20005KT P6SM SKC
     FM031800 23005KT P6SM SCT035=



000
FTUS43 KARX 022323
TAFRST
TAF
KRST 022323Z 0300/0324 10005KT P6SM BKN250
     FM030500 15003KT P6SM SCT250
     FM031000 25005KT P6SM SCT250=



000
FTUS43 KARX 022323
TAFRST
TAF
KRST 022323Z 0300/0324 10005KT P6SM BKN250
     FM030500 15003KT P6SM SCT250
     FM031000 25005KT P6SM SCT250=



000
FTUS43 KARX 021721
TAFRST
TAF
KRST 021721Z 0218/0318 12005KT P6SM SCT250
     FM030500 15003KT P6SM SCT250
     FM031000 21005KT P6SM SCT250=



000
FTUS43 KARX 021721
TAFRST
TAF
KRST 021721Z 0218/0318 12005KT P6SM SCT250
     FM030500 15003KT P6SM SCT250
     FM031000 21005KT P6SM SCT250=



000
FTUS43 KARX 021721
TAFLSE
TAF
KLSE 021721Z 0218/0318 12003KT P6SM SCT040
     FM030000 13003KT P6SM SCT250
     FM031000 14003KT 4SM BR BCFG SCT003
      TEMPO 0310/0313 1/2SM FG BKN002
     FM031400 19004KT P6SM SKC=



000
FTUS43 KARX 021721
TAFLSE
TAF
KLSE 021721Z 0218/0318 12003KT P6SM SCT040
     FM030000 13003KT P6SM SCT250
     FM031000 14003KT 4SM BR BCFG SCT003
      TEMPO 0310/0313 1/2SM FG BKN002
     FM031400 19004KT P6SM SKC=



000
FTUS43 KARX 021312 AAA
TAFLSE
TAF AMD
KLSE 021312Z 0213/0312 12004KT P6SM SCT040
     FM030000 17004KT P6SM SKC
     FM031000 VRB03KT 4SM BR SCT004
     FM031100 VRB03KT 4SM BR BKN004=



000
FTUS43 KARX 021312 AAA
TAFLSE
TAF AMD
KLSE 021312Z 0213/0312 12004KT P6SM SCT040
     FM030000 17004KT P6SM SKC
     FM031000 VRB03KT 4SM BR SCT004
     FM031100 VRB03KT 4SM BR BKN004=



000
FTUS43 KARX 021312 AAA
TAFLSE
TAF AMD
KLSE 021312Z 0213/0312 12004KT P6SM SCT040
     FM030000 17004KT P6SM SKC
     FM031000 VRB03KT 4SM BR SCT004
     FM031100 VRB03KT 4SM BR BKN004=



000
FTUS43 KARX 021312 AAA
TAFLSE
TAF AMD
KLSE 021312Z 0213/0312 12004KT P6SM SCT040
     FM030000 17004KT P6SM SKC
     FM031000 VRB03KT 4SM BR SCT004
     FM031100 VRB03KT 4SM BR BKN004=



000
FTUS43 KARX 021124
TAFRST
TAF
KRST 021124Z 0212/0312 11005KT P6SM SCT250
     FM030600 15003KT P6SM SCT250=



000
FTUS43 KARX 021124
TAFLSE
TAF
KLSE 021124Z 0212/0312 14004KT 1/2SM FG BKN002
     FM021300 14005KT 5SM BR SCT003
     FM021400 12004KT P6SM SCT040
     FM030000 17004KT P6SM SKC
     FM031000 VRB03KT 4SM BR SCT004
     FM031100 VRB03KT 4SM BR BKN004=



000
FTUS43 KARX 021124
TAFLSE
TAF
KLSE 021124Z 0212/0312 14004KT 1/2SM FG BKN002
     FM021300 14005KT 5SM BR SCT003
     FM021400 12004KT P6SM SCT040
     FM030000 17004KT P6SM SKC
     FM031000 VRB03KT 4SM BR SCT004
     FM031100 VRB03KT 4SM BR BKN004=



000
FTUS43 KARX 021124
TAFRST
TAF
KRST 021124Z 0212/0312 11005KT P6SM SCT250
     FM030600 15003KT P6SM SCT250=



000
FTUS43 KARX 020735 AAA
TAFLSE
TAF AMD
KLSE 020735Z 0208/0306 00000KT P6SM SKC
     FM020900 VRB03KT 4SM BR SCT002
      TEMPO 0210/0212 1/2SM FG BKN002
     FM021200 VRB03KT 5SM BR SCT003
     FM021400 VRB03KT P6SM SCT040
     FM030000 17005KT P6SM SCT250=



000
FTUS43 KARX 020520
TAFLSE
TAF
KLSE 020520Z 0206/0306 00000KT P6SM SKC
     FM021000 00000KT 4SM BR SCT250
     FM021400 VRB03KT P6SM SCT040
     FM030000 17005KT P6SM SCT250=



000
FTUS43 KARX 020520
TAFRST
TAF
KRST 020520Z 0206/0306 06003KT P6SM SCT250
     FM021500 11003KT P6SM SCT040
     FM030000 15003KT P6SM SCT250=



000
FTUS43 KARX 020520
TAFLSE
TAF
KLSE 020520Z 0206/0306 00000KT P6SM SKC
     FM021000 00000KT 4SM BR SCT250
     FM021400 VRB03KT P6SM SCT040
     FM030000 17005KT P6SM SCT250=



000
FTUS43 KARX 020520
TAFRST
TAF
KRST 020520Z 0206/0306 06003KT P6SM SCT250
     FM021500 11003KT P6SM SCT040
     FM030000 15003KT P6SM SCT250=



000
FTUS43 KARX 012322
TAFRST
TAF
KRST 012322Z 0200/0224 06003KT P6SM SCT140
     FM021500 11003KT P6SM SCT040=



000
FTUS43 KARX 012322
TAFRST
TAF
KRST 012322Z 0200/0224 06003KT P6SM SCT140
     FM021500 11003KT P6SM SCT040=



000
FTUS43 KARX 012322
TAFLSE
TAF
KLSE 012322Z 0200/0224 VRB04KT P6SM SCT150
     FM021000 VRB03KT 4SM BR SCT250
     FM021400 VRB03KT P6SM SCT040=



000
FTUS43 KARX 012322
TAFRST
TAF
KRST 012322Z 0200/0224 06003KT P6SM SCT140
     FM021500 11003KT P6SM SCT040=



000
FTUS43 KARX 012322
TAFLSE
TAF
KLSE 012322Z 0200/0224 VRB04KT P6SM SCT150
     FM021000 VRB03KT 4SM BR SCT250
     FM021400 VRB03KT P6SM SCT040=



000
FTUS43 KARX 012322
TAFRST
TAF
KRST 012322Z 0200/0224 06003KT P6SM SCT140
     FM021500 11003KT P6SM SCT040=



000
FTUS43 KARX 012322
TAFLSE
TAF
KLSE 012322Z 0200/0224 VRB04KT P6SM SCT150
     FM021000 VRB03KT 4SM BR SCT250
     FM021400 VRB03KT P6SM SCT040=



000
FTUS43 KARX 012322
TAFLSE
TAF
KLSE 012322Z 0200/0224 VRB04KT P6SM SCT150
     FM021000 VRB03KT 4SM BR SCT250
     FM021400 VRB03KT P6SM SCT040=



000
FTUS43 KARX 011721
TAFRST
TAF
KRST 011721Z 0118/0218 09006KT P6SM -SHRA BKN120
     FM011930 10006KT P6SM BKN130
     FM012300 10005KT P6SM SCT140
     FM021500 14008KT P6SM SCT040=



000
FTUS43 KARX 011721
TAFLSE
TAF
KLSE 011721Z 0118/0218 10005KT P6SM BKN140
     FM012300 VRB04KT P6SM SCT150
     FM021000 VRB03KT 4SM BR SCT250
     FM021400 13006KT P6SM SCT040=



000
FTUS43 KARX 011120
TAFLSE
TAF
KLSE 011120Z 0112/0212 02005KT P6SM SCT250
     FM011400 07007KT P6SM SCT150
     FM012300 VRB04KT P6SM FEW250
     FM021000 VRB03KT 4SM BR SKC=



000
FTUS43 KARX 011120
TAFRST
TAF
KRST 011120Z 0112/0212 08006KT P6SM SCT150
     FM011500 09007KT P6SM BKN100
     FM012300 11005KT P6SM SCT150=



000
FTUS43 KARX 011120
TAFLSE
TAF
KLSE 011120Z 0112/0212 02005KT P6SM SCT250
     FM011400 07007KT P6SM SCT150
     FM012300 VRB04KT P6SM FEW250
     FM021000 VRB03KT 4SM BR SKC=



000
FTUS43 KARX 011120
TAFRST
TAF
KRST 011120Z 0112/0212 08006KT P6SM SCT150
     FM011500 09007KT P6SM BKN100
     FM012300 11005KT P6SM SCT150=



000
FTUS43 KARX 011120
TAFLSE
TAF
KLSE 011120Z 0112/0212 02005KT P6SM SCT250
     FM011400 07007KT P6SM SCT150
     FM012300 VRB04KT P6SM FEW250
     FM021000 VRB03KT 4SM BR SKC=



000
FTUS43 KARX 011120
TAFRST
TAF
KRST 011120Z 0112/0212 08006KT P6SM SCT150
     FM011500 09007KT P6SM BKN100
     FM012300 11005KT P6SM SCT150=



000
FTUS43 KARX 011120
TAFRST
TAF
KRST 011120Z 0112/0212 08006KT P6SM SCT150
     FM011500 09007KT P6SM BKN100
     FM012300 11005KT P6SM SCT150=



000
FTUS43 KARX 011120
TAFLSE
TAF
KLSE 011120Z 0112/0212 02005KT P6SM SCT250
     FM011400 07007KT P6SM SCT150
     FM012300 VRB04KT P6SM FEW250
     FM021000 VRB03KT 4SM BR SKC=



000
FTUS43 KARX 010520
TAFRST
TAF
KRST 010520Z 0106/0206 09007KT P6SM BKN250
     FM011000 09005KT P6SM BKN150
     FM012300 11005KT P6SM SCT150=



000
FTUS43 KARX 010520
TAFLSE
TAF
KLSE 010520Z 0106/0206 02005KT P6SM SCT250
     FM010800 07003KT P6SM BKN250
     FM011400 07007KT P6SM SCT250
     FM012300 11006KT P6SM SCT250=



000
FTUS43 KARX 010520
TAFLSE
TAF
KLSE 010520Z 0106/0206 02005KT P6SM SCT250
     FM010800 07003KT P6SM BKN250
     FM011400 07007KT P6SM SCT250
     FM012300 11006KT P6SM SCT250=



000
FTUS43 KARX 010520
TAFRST
TAF
KRST 010520Z 0106/0206 09007KT P6SM BKN250
     FM011000 09005KT P6SM BKN150
     FM012300 11005KT P6SM SCT150=



000
FTUS43 KARX 010520
TAFRST
TAF
KRST 010520Z 0106/0206 09007KT P6SM BKN250
     FM011000 09005KT P6SM BKN150
     FM012300 11005KT P6SM SCT150=



000
FTUS43 KARX 010520
TAFRST
TAF
KRST 010520Z 0106/0206 09007KT P6SM BKN250
     FM011000 09005KT P6SM BKN150
     FM012300 11005KT P6SM SCT150=



000
FTUS43 KARX 010520
TAFLSE
TAF
KLSE 010520Z 0106/0206 02005KT P6SM SCT250
     FM010800 07003KT P6SM BKN250
     FM011400 07007KT P6SM SCT250
     FM012300 11006KT P6SM SCT250=



000
FTUS43 KARX 010520
TAFLSE
TAF
KLSE 010520Z 0106/0206 02005KT P6SM SCT250
     FM010800 07003KT P6SM BKN250
     FM011400 07007KT P6SM SCT250
     FM012300 11006KT P6SM SCT250=



    US Dept of Commerce
    National Oceanic and Atmospheric Administration
    National Weather Service
    1325 East West Highway
    Silver Spring, MD 20910
    Page Author: NWS Internet Services Team
Disclaimer
Information Quality
Credits
Glossary
Privacy Policy
Freedom of Information Act (FOIA)
About Us
Career Opportunities